sensor_id;sensor_type;location;lat;lon;timestamp;pressure;altitude;pressure_sealevel;temperature;humidity
58769;BME280;44536;47.474;19.056;2022-10-16T00:00:30;100969.41;;;14.16;77.15
58769;BME280;44536;47.474;19.056;2022-10-16T00:03:32;100971.09;;;14.17;74.89
58769;BME280;44536;47.474;19.056;2022-10-16T00:06:34;100970.53;;;14.03;75.12
58769;BME280;44536;47.474;19.056;2022-10-16T00:09:36;100959.88;;;14.03;74.52
58769;BME280;44536;47.474;19.056;2022-10-16T00:12:38;100967.47;;;14.07;74.60
58769;BME280;44536;47.474;19.056;2022-10-16T00:15:40;100964.81;;;14.07;74.61
58769;BME280;44536;47.474;19.056;2022-10-16T00:18:44;100966.25;;;14.11;73.50
58769;BME280;44536;47.474;19.056;2022-10-16T00:21:46;100965.41;;;14.11;75.51
58769;BME280;44536;47.474;19.056;2022-10-16T00:24:48;100965.28;;;14.12;73.82
58769;BME280;44536;47.474;19.056;2022-10-16T00:27:51;100972.81;;;14.07;75.10
58769;BME280;44536;47.474;19.056;2022-10-16T00:30:53;100973.78;;;14.06;75.62
58769;BME280;44536;47.474;19.056;2022-10-16T00:33:55;100968.75;;;13.92;75.37
58769;BME280;44536;47.474;19.056;2022-10-16T00:36:57;100981.81;;;13.95;75.14
58769;BME280;44536;47.474;19.056;2022-10-16T00:39:59;100975.87;;;14.03;73.28
58769;BME280;44536;47.474;19.056;2022-10-16T00:43:01;100982.06;;;14.03;73.06
58769;BME280;44536;47.474;19.056;2022-10-16T00:46:04;100984.50;;;13.95;74.16
58769;BME280;44536;47.474;19.056;2022-10-16T00:49:16;100985.94;;;13.99;73.19
58769;BME280;44536;47.474;19.056;2022-10-16T00:52:20;100991.16;;;13.89;73.70
58769;BME280;44536;47.474;19.056;2022-10-16T00:55:22;100984.62;;;13.82;72.92
58769;BME280;44536;47.474;19.056;2022-10-16T00:58:25;100986.06;;;13.86;74.02
58769;BME280;44536;47.474;19.056;2022-10-16T01:01:27;100989.34;;;13.79;75.55
58769;BME280;44536;47.474;19.056;2022-10-16T01:04:49;100987.88;;;13.75;75.15
58769;BME280;44536;47.474;19.056;2022-10-16T01:10:57;101000.97;;;13.67;75.05
58769;BME280;44536;47.474;19.056;2022-10-16T01:14:05;100999.87;;;13.58;75.62
58769;BME280;44536;47.474;19.056;2022-10-16T01:20:30;101005.19;;;13.36;76.30
58769;BME280;44536;47.474;19.056;2022-10-16T01:30:12;101017.75;;;12.87;78.50
58769;BME280;44536;47.474;19.056;2022-10-16T01:33:28;101008.12;;;12.74;79.04
58769;BME280;44536;47.474;19.056;2022-10-16T01:36:35;101013.50;;;12.61;79.69
58769;BME280;44536;47.474;19.056;2022-10-16T01:39:39;101017.25;;;12.35;80.45
58769;BME280;44536;47.474;19.056;2022-10-16T01:42:44;101013.06;;;12.19;81.77
58769;BME280;44536;47.474;19.056;2022-10-16T01:45:48;101012.41;;;12.16;81.68
58769;BME280;44536;47.474;19.056;2022-10-16T01:48:50;101017.25;;;11.98;82.83
58769;BME280;44536;47.474;19.056;2022-10-16T01:51:54;101022.50;;;11.87;83.15
58769;BME280;44536;47.474;19.056;2022-10-16T01:54:57;101026.53;;;11.80;84.42
58769;BME280;44536;47.474;19.056;2022-10-16T01:58:02;101025.25;;;11.73;83.90
58769;BME280;44536;47.474;19.056;2022-10-16T02:01:07;101033.31;;;11.58;85.80
58769;BME280;44536;47.474;19.056;2022-10-16T02:04:27;101042.03;;;11.48;86.28
58769;BME280;44536;47.474;19.056;2022-10-16T02:07:29;101034.91;;;11.48;86.53
58769;BME280;44536;47.474;19.056;2022-10-16T02:10:32;101040.66;;;11.55;85.26
58769;BME280;44536;47.474;19.056;2022-10-16T02:13:46;101047.13;;;11.51;85.09
58769;BME280;44536;47.474;19.056;2022-10-16T02:16:49;101047.69;;;11.43;85.55
58769;BME280;44536;47.474;19.056;2022-10-16T02:19:52;101044.81;;;11.34;85.47
58769;BME280;44536;47.474;19.056;2022-10-16T02:22:56;101050.00;;;11.22;87.10
58769;BME280;44536;47.474;19.056;2022-10-16T02:25:58;101034.78;;;11.12;88.02
58769;BME280;44536;47.474;19.056;2022-10-16T02:29:04;101043.87;;;10.95;91.66
58769;BME280;44536;47.474;19.056;2022-10-16T02:32:08;101037.41;;;10.86;91.65
58769;BME280;44536;47.474;19.056;2022-10-16T02:35:12;101049.25;;;10.81;92.57
58769;BME280;44536;47.474;19.056;2022-10-16T02:38:15;101044.06;;;10.92;91.30
58769;BME280;44536;47.474;19.056;2022-10-16T02:41:18;101052.88;;;10.92;90.00
58769;BME280;44536;47.474;19.056;2022-10-16T02:44:20;101059.56;;;10.85;90.29
58769;BME280;44536;47.474;19.056;2022-10-16T02:47:22;101053.72;;;10.80;90.38
58769;BME280;44536;47.474;19.056;2022-10-16T02:50:24;101057.81;;;10.72;92.06
58769;BME280;44536;47.474;19.056;2022-10-16T02:53:27;101052.38;;;10.60;92.86
58769;BME280;44536;47.474;19.056;2022-10-16T02:56:29;101058.22;;;10.66;93.40
58769;BME280;44536;47.474;19.056;2022-10-16T02:59:31;101060.87;;;10.66;92.90
58769;BME280;44536;47.474;19.056;2022-10-16T03:02:33;101066.72;;;10.71;92.63
58769;BME280;44536;47.474;19.056;2022-10-16T03:05:35;101071.19;;;10.70;92.02
58769;BME280;44536;47.474;19.056;2022-10-16T03:08:37;101071.78;;;10.61;92.09
58769;BME280;44536;47.474;19.056;2022-10-16T03:11:40;101065.91;;;10.56;91.98
58769;BME280;44536;47.474;19.056;2022-10-16T03:14:41;101065.16;;;10.54;91.84
58769;BME280;44536;47.474;19.056;2022-10-16T03:17:44;101065.91;;;10.56;91.72
58769;BME280;44536;47.474;19.056;2022-10-16T03:20:45;101067.22;;;10.63;91.29
58769;BME280;44536;47.474;19.056;2022-10-16T03:23:48;101069.81;;;10.50;92.82
58769;BME280;44536;47.474;19.056;2022-10-16T03:26:52;101079.09;;;10.57;91.12
58769;BME280;44536;47.474;19.056;2022-10-16T03:29:54;101079.19;;;10.56;90.71
58769;BME280;44536;47.474;19.056;2022-10-16T03:32:56;101082.62;;;10.44;91.26
58769;BME280;44536;47.474;19.056;2022-10-16T03:35:58;101081.56;;;10.46;91.05
58769;BME280;44536;47.474;19.056;2022-10-16T03:39:00;101092.28;;;10.45;91.32
58769;BME280;44536;47.474;19.056;2022-10-16T03:42:02;101099.03;;;10.36;92.17
58769;BME280;44536;47.474;19.056;2022-10-16T03:45:04;101098.00;;;10.24;94.01
58769;BME280;44536;47.474;19.056;2022-10-16T03:48:07;101102.91;;;10.16;95.08
58769;BME280;44536;47.474;19.056;2022-10-16T03:51:09;101104.16;;;10.25;93.70
58769;BME280;44536;47.474;19.056;2022-10-16T03:54:11;101103.12;;;10.27;92.64
58769;BME280;44536;47.474;19.056;2022-10-16T03:57:13;101103.31;;;10.24;92.34
58769;BME280;44536;47.474;19.056;2022-10-16T04:00:15;101097.97;;;10.10;95.04
58769;BME280;44536;47.474;19.056;2022-10-16T04:03:17;101112.19;;;10.09;95.04
58769;BME280;44536;47.474;19.056;2022-10-16T04:06:20;101107.25;;;10.03;97.20
58769;BME280;44536;47.474;19.056;2022-10-16T04:09:23;101107.34;;;10.02;96.30
58769;BME280;44536;47.474;19.056;2022-10-16T04:12:25;101112.75;;;10.00;94.92
58769;BME280;44536;47.474;19.056;2022-10-16T04:15:28;101114.91;;;10.08;93.54
58769;BME280;44536;47.474;19.056;2022-10-16T04:18:29;101113.78;;;9.98;92.87
58769;BME280;44536;47.474;19.056;2022-10-16T04:21:32;101113.97;;;9.94;92.94
58769;BME280;44536;47.474;19.056;2022-10-16T04:24:34;101108.94;;;9.90;93.41
58769;BME280;44536;47.474;19.056;2022-10-16T04:27:36;101120.50;;;10.03;92.61
58769;BME280;44536;47.474;19.056;2022-10-16T04:30:42;101117.09;;;10.01;92.26
58769;BME280;44536;47.474;19.056;2022-10-16T04:33:45;101110.97;;;9.86;93.32
58769;BME280;44536;47.474;19.056;2022-10-16T04:36:47;101114.75;;;9.82;93.48
58769;BME280;44536;47.474;19.056;2022-10-16T04:39:51;101110.03;;;9.87;92.92
58769;BME280;44536;47.474;19.056;2022-10-16T04:42:53;101122.78;;;9.81;93.45
58769;BME280;44536;47.474;19.056;2022-10-16T04:45:56;101119.06;;;9.69;96.07
58769;BME280;44536;47.474;19.056;2022-10-16T04:48:58;101122.28;;;9.74;93.86
58769;BME280;44536;47.474;19.056;2022-10-16T04:52:01;101125.22;;;9.70;94.66
58769;BME280;44536;47.474;19.056;2022-10-16T04:55:03;101131.09;;;9.75;94.04
58769;BME280;44536;47.474;19.056;2022-10-16T04:58:05;101132.13;;;9.72;94.06
58769;BME280;44536;47.474;19.056;2022-10-16T05:01:07;101136.75;;;9.69;94.23
58769;BME280;44536;47.474;19.056;2022-10-16T05:04:09;101144.41;;;9.59;96.11
58769;BME280;44536;47.474;19.056;2022-10-16T05:07:11;101146.38;;;9.55;96.36
58769;BME280;44536;47.474;19.056;2022-10-16T05:10:14;101144.84;;;9.51;97.72
58769;BME280;44536;47.474;19.056;2022-10-16T05:13:16;101142.88;;;9.55;97.80
58769;BME280;44536;47.474;19.056;2022-10-16T05:16:18;101136.22;;;9.48;98.22
58769;BME280;44536;47.474;19.056;2022-10-16T05:19:20;101148.44;;;9.50;97.38
58769;BME280;44536;47.474;19.056;2022-10-16T05:22:30;101149.69;;;9.59;96.48
58769;BME280;44536;47.474;19.056;2022-10-16T05:25:32;101152.47;;;9.72;94.54
58769;BME280;44536;47.474;19.056;2022-10-16T05:28:34;101156.09;;;9.85;93.73
58769;BME280;44536;47.474;19.056;2022-10-16T05:31:36;101155.69;;;9.91;92.32
58769;BME280;44536;47.474;19.056;2022-10-16T05:34:38;101159.09;;;9.93;92.39
58769;BME280;44536;47.474;19.056;2022-10-16T05:37:40;101167.81;;;9.95;92.21
58769;BME280;44536;47.474;19.056;2022-10-16T05:40:42;101168.19;;;10.03;91.99
58769;BME280;44536;47.474;19.056;2022-10-16T05:43:44;101170.19;;;10.00;92.70
58769;BME280;44536;47.474;19.056;2022-10-16T05:46:47;101174.62;;;10.13;91.51
58769;BME280;44536;47.474;19.056;2022-10-16T05:49:49;101175.41;;;10.15;92.43
58769;BME280;44536;47.474;19.056;2022-10-16T05:52:51;101173.06;;;10.25;90.02
58769;BME280;44536;47.474;19.056;2022-10-16T05:55:53;101173.59;;;10.58;88.82
58769;BME280;44536;47.474;19.056;2022-10-16T05:58:55;101179.16;;;10.82;86.11
58769;BME280;44536;47.474;19.056;2022-10-16T06:01:57;101183.03;;;11.18;81.85
58769;BME280;44536;47.474;19.056;2022-10-16T06:04:59;101189.84;;;11.22;84.32
58769;BME280;44536;47.474;19.056;2022-10-16T06:08:01;101188.28;;;11.45;80.54
58769;BME280;44536;47.474;19.056;2022-10-16T06:11:04;101194.16;;;11.50;81.07
58769;BME280;44536;47.474;19.056;2022-10-16T06:14:07;101202.47;;;11.58;81.25
58769;BME280;44536;47.474;19.056;2022-10-16T06:17:10;101200.22;;;11.79;77.92
58769;BME280;44536;47.474;19.056;2022-10-16T06:20:12;101209.56;;;11.97;76.79
58769;BME280;44536;47.474;19.056;2022-10-16T06:23:14;101215.53;;;12.13;75.44
58769;BME280;44536;47.474;19.056;2022-10-16T06:26:17;101205.34;;;12.20;75.87
58769;BME280;44536;47.474;19.056;2022-10-16T06:29:19;101212.03;;;12.38;74.83
58769;BME280;44536;47.474;19.056;2022-10-16T06:32:21;101213.81;;;12.50;74.49
58769;BME280;44536;47.474;19.056;2022-10-16T06:35:23;101221.62;;;12.41;74.71
58769;BME280;44536;47.474;19.056;2022-10-16T06:38:25;101234.06;;;12.40;73.67
58769;BME280;44536;47.474;19.056;2022-10-16T06:41:27;101231.69;;;12.61;73.77
58769;BME280;44536;47.474;19.056;2022-10-16T06:44:31;101240.59;;;12.73;74.00
58769;BME280;44536;47.474;19.056;2022-10-16T06:47:33;101242.63;;;12.82;72.26
58769;BME280;44536;47.474;19.056;2022-10-16T06:50:35;101246.03;;;12.71;72.63
58769;BME280;44536;47.474;19.056;2022-10-16T06:53:38;101248.91;;;12.81;71.81
58769;BME280;44536;47.474;19.056;2022-10-16T06:57:00;101248.91;;;12.81;72.92
58769;BME280;44536;47.474;19.056;2022-10-16T07:00:04;101247.28;;;12.91;71.65
58769;BME280;44536;47.474;19.056;2022-10-16T07:03:06;101251.22;;;12.98;70.90
58769;BME280;44536;47.474;19.056;2022-10-16T07:06:08;101259.31;;;12.97;71.16
58769;BME280;44536;47.474;19.056;2022-10-16T07:09:11;101264.84;;;12.93;71.63
58769;BME280;44536;47.474;19.056;2022-10-16T07:12:13;101275.66;;;13.03;70.94
58769;BME280;44536;47.474;19.056;2022-10-16T07:15:15;101268.88;;;12.99;71.54
58769;BME280;44536;47.474;19.056;2022-10-16T07:18:17;101269.47;;;13.15;71.40
58769;BME280;44536;47.474;19.056;2022-10-16T07:21:20;101281.19;;;13.25;70.54
58769;BME280;44536;47.474;19.056;2022-10-16T07:24:22;101288.09;;;13.15;70.90
58769;BME280;44536;47.474;19.056;2022-10-16T07:27:24;101285.03;;;13.09;70.51
58769;BME280;44536;47.474;19.056;2022-10-16T07:30:28;101285.78;;;13.11;70.72
58769;BME280;44536;47.474;19.056;2022-10-16T07:33:30;101293.66;;;13.12;70.78
58769;BME280;44536;47.474;19.056;2022-10-16T07:36:33;101301.44;;;13.28;70.70
58769;BME280;44536;47.474;19.056;2022-10-16T07:39:35;101300.97;;;12.85;69.87
58769;BME280;44536;47.474;19.056;2022-10-16T07:42:38;101301.16;;;12.95;70.72
58769;BME280;44536;47.474;19.056;2022-10-16T07:45:47;101303.16;;;13.04;70.94
58769;BME280;44536;47.474;19.056;2022-10-16T07:48:50;101304.09;;;13.03;70.56
58769;BME280;44536;47.474;19.056;2022-10-16T07:51:52;101311.44;;;13.24;70.78
58769;BME280;44536;47.474;19.056;2022-10-16T07:54:54;101308.75;;;13.37;69.46
58769;BME280;44536;47.474;19.056;2022-10-16T07:58:01;101305.47;;;13.34;70.38
58769;BME280;44536;47.474;19.056;2022-10-16T08:01:04;101311.97;;;13.53;70.24
58769;BME280;44536;47.474;19.056;2022-10-16T08:04:08;101321.41;;;13.46;69.21
58769;BME280;44536;47.474;19.056;2022-10-16T08:07:10;101326.56;;;13.37;70.36
58769;BME280;44536;47.474;19.056;2022-10-16T08:10:15;101324.34;;;13.18;69.88
58769;BME280;44536;47.474;19.056;2022-10-16T08:13:17;101331.44;;;13.43;69.98
58769;BME280;44536;47.474;19.056;2022-10-16T08:16:20;101325.66;;;13.49;69.97
58769;BME280;44536;47.474;19.056;2022-10-16T08:19:22;101327.41;;;13.61;69.18
58769;BME280;44536;47.474;19.056;2022-10-16T08:22:24;101327.34;;;13.74;68.56
58769;BME280;44536;47.474;19.056;2022-10-16T08:25:26;101336.31;;;13.73;68.48
58769;BME280;44536;47.474;19.056;2022-10-16T08:28:28;101334.00;;;13.68;68.34
58769;BME280;44536;47.474;19.056;2022-10-16T08:31:30;101346.31;;;13.82;68.79
58769;BME280;44536;47.474;19.056;2022-10-16T08:34:33;101355.97;;;13.59;68.93
58769;BME280;44536;47.474;19.056;2022-10-16T08:37:35;101353.13;;;13.86;68.43
58769;BME280;44536;47.474;19.056;2022-10-16T08:40:37;101345.28;;;13.96;68.52
58769;BME280;44536;47.474;19.056;2022-10-16T08:49:55;101355.22;;;14.29;66.76
58769;BME280;44536;47.474;19.056;2022-10-16T08:52:58;101360.06;;;14.23;66.80
58769;BME280;44536;47.474;19.056;2022-10-16T08:56:00;101351.84;;;14.38;65.94
58769;BME280;44536;47.474;19.056;2022-10-16T08:59:03;101355.44;;;14.25;66.63
58769;BME280;44536;47.474;19.056;2022-10-16T09:08:31;101355.13;;;14.76;65.81
58769;BME280;44536;47.474;19.056;2022-10-16T09:18:34;101369.22;;;14.89;64.06
58769;BME280;44536;47.474;19.056;2022-10-16T09:21:40;101361.59;;;15.07;63.71
58769;BME280;44536;47.474;19.056;2022-10-16T09:24:42;101367.75;;;15.19;63.90
58769;BME280;44536;47.474;19.056;2022-10-16T09:27:45;101367.28;;;15.36;63.68
58769;BME280;44536;47.474;19.056;2022-10-16T09:30:48;101363.25;;;15.42;63.24
58769;BME280;44536;47.474;19.056;2022-10-16T09:34:00;101353.50;;;15.63;63.03
58769;BME280;44536;47.474;19.056;2022-10-16T09:37:14;101362.97;;;15.67;62.13
58769;BME280;44536;47.474;19.056;2022-10-16T09:40:32;101365.06;;;16.07;61.70
58769;BME280;44536;47.474;19.056;2022-10-16T09:43:39;101367.19;;;16.13;61.04
58769;BME280;44536;47.474;19.056;2022-10-16T09:46:41;101359.00;;;16.26;60.78
58769;BME280;44536;47.474;19.056;2022-10-16T09:49:54;101365.44;;;16.55;59.77
58769;BME280;44536;47.474;19.056;2022-10-16T09:53:08;101366.88;;;16.59;60.18
58769;BME280;44536;47.474;19.056;2022-10-16T09:56:11;101365.41;;;16.97;59.10
58769;BME280;44536;47.474;19.056;2022-10-16T09:59:16;101368.91;;;17.28;58.29
58769;BME280;44536;47.474;19.056;2022-10-16T10:02:20;101371.72;;;17.26;58.39
58769;BME280;44536;47.474;19.056;2022-10-16T10:05:26;101370.53;;;17.40;57.02
58769;BME280;44536;47.474;19.056;2022-10-16T10:08:28;101379.69;;;17.37;57.64
58769;BME280;44536;47.474;19.056;2022-10-16T10:15:07;101368.84;;;17.48;57.81
58769;BME280;44536;47.474;19.056;2022-10-16T10:18:17;101369.13;;;17.95;56.48
58769;BME280;44536;47.474;19.056;2022-10-16T10:21:20;101361.34;;;18.02;55.06
58769;BME280;44536;47.474;19.056;2022-10-16T10:24:22;101349.50;;;18.04;55.78
58769;BME280;44536;47.474;19.056;2022-10-16T10:37:03;101346.91;;;18.41;54.16
58769;BME280;44536;47.474;19.056;2022-10-16T10:43:31;101348.31;;;18.65;54.68
58769;BME280;44536;47.474;19.056;2022-10-16T10:46:41;101342.78;;;19.13;52.68
58769;BME280;44536;47.474;19.056;2022-10-16T10:52:59;101337.41;;;19.68;51.92
58769;BME280;44536;47.474;19.056;2022-10-16T10:56:07;101336.84;;;20.79;48.65
58769;BME280;44536;47.474;19.056;2022-10-16T11:08:48;101340.88;;;27.11;36.03
58769;BME280;44536;47.474;19.056;2022-10-16T11:15:05;101341.44;;;28.75;31.07
58769;BME280;44536;47.474;19.056;2022-10-16T11:18:16;101335.25;;;29.25;30.49
58769;BME280;44536;47.474;19.056;2022-10-16T11:21:22;101323.03;;;29.35;29.19
58769;BME280;44536;47.474;19.056;2022-10-16T11:24:41;101324.53;;;29.24;29.86
58769;BME280;44536;47.474;19.056;2022-10-16T11:27:52;101320.12;;;29.23;30.43
58769;BME280;44536;47.474;19.056;2022-10-16T11:30:57;101319.38;;;27.84;31.08
58769;BME280;44536;47.474;19.056;2022-10-16T11:37:23;101315.00;;;29.40;28.66
58769;BME280;44536;47.474;19.056;2022-10-16T11:40:31;101307.94;;;29.19;29.70
58769;BME280;44536;47.474;19.056;2022-10-16T11:43:38;101308.47;;;28.70;29.25
58769;BME280;44536;47.474;19.056;2022-10-16T11:46:46;101306.81;;;28.88;29.45
58769;BME280;44536;47.474;19.056;2022-10-16T11:53:59;101315.66;;;28.44;29.70
58769;BME280;44536;47.474;19.056;2022-10-16T11:56:53;101307.03;;;28.21;29.75
58769;BME280;44536;47.474;19.056;2022-10-16T11:59:58;101313.75;;;27.98;30.93
58769;BME280;44536;47.474;19.056;2022-10-16T12:06:29;101308.22;;;25.49;34.21
58769;BME280;44536;47.474;19.056;2022-10-16T12:09:34;101304.28;;;26.09;33.48
58769;BME280;44536;47.474;19.056;2022-10-16T12:12:38;101293.03;;;27.36;31.78
58769;BME280;44536;47.474;19.056;2022-10-16T12:15:40;101289.78;;;26.79;32.05
58769;BME280;44536;47.474;19.056;2022-10-16T12:19:10;101293.59;;;27.86;31.15
58769;BME280;44536;47.474;19.056;2022-10-16T12:22:15;101292.38;;;28.35;29.78
58769;BME280;44536;47.474;19.056;2022-10-16T12:25:30;101286.69;;;27.97;30.63
58769;BME280;44536;47.474;19.056;2022-10-16T12:28:33;101284.16;;;27.21;32.65
58769;BME280;44536;47.474;19.056;2022-10-16T12:31:43;101291.56;;;25.66;34.37
58769;BME280;44536;47.474;19.056;2022-10-16T12:34:58;101280.78;;;24.63;36.05
58769;BME280;44536;47.474;19.056;2022-10-16T12:38:05;101278.38;;;23.70;37.77
58769;BME280;44536;47.474;19.056;2022-10-16T12:41:08;101281.09;;;23.70;39.14
58769;BME280;44536;47.474;19.056;2022-10-16T12:44:21;101281.56;;;24.87;37.16
58769;BME280;44536;47.474;19.056;2022-10-16T12:50:36;101277.78;;;25.32;35.57
58769;BME280;44536;47.474;19.056;2022-10-16T12:53:39;101289.38;;;25.98;34.25
58769;BME280;44536;47.474;19.056;2022-10-16T12:56:46;101290.03;;;26.56;32.72
58769;BME280;44536;47.474;19.056;2022-10-16T13:09:40;101288.50;;;26.75;33.93
58769;BME280;44536;47.474;19.056;2022-10-16T13:25:28;101291.97;;;27.37;31.85
58769;BME280;44536;47.474;19.056;2022-10-16T13:28:36;101290.56;;;27.00;31.99
58769;BME280;44536;47.474;19.056;2022-10-16T13:31:39;101300.63;;;25.95;33.58
58769;BME280;44536;47.474;19.056;2022-10-16T13:34:46;101297.53;;;26.26;33.46
58769;BME280;44536;47.474;19.056;2022-10-16T13:37:48;101302.88;;;26.34;34.73
58769;BME280;44536;47.474;19.056;2022-10-16T13:40:57;101300.47;;;26.52;33.80
58769;BME280;44536;47.474;19.056;2022-10-16T13:44:00;101306.97;;;25.45;33.80
58769;BME280;44536;47.474;19.056;2022-10-16T13:47:03;101301.59;;;25.87;33.67
58769;BME280;44536;47.474;19.056;2022-10-16T13:50:15;101297.78;;;25.46;36.24
58769;BME280;44536;47.474;19.056;2022-10-16T13:53:17;101301.09;;;25.62;35.32
58769;BME280;44536;47.474;19.056;2022-10-16T13:56:20;101304.47;;;26.07;33.25
58769;BME280;44536;47.474;19.056;2022-10-16T13:59:26;101306.69;;;25.39;34.23
58769;BME280;44536;47.474;19.056;2022-10-16T14:02:31;101310.47;;;24.27;36.67
58769;BME280;44536;47.474;19.056;2022-10-16T14:05:49;101301.66;;;23.57;38.49
58769;BME280;44536;47.474;19.056;2022-10-16T14:08:55;101312.53;;;22.30;40.89
58769;BME280;44536;47.474;19.056;2022-10-16T14:12:00;101314.72;;;22.34;41.39
58769;BME280;44536;47.474;19.056;2022-10-16T14:15:02;101310.16;;;22.27;41.38
58769;BME280;44536;47.474;19.056;2022-10-16T14:18:04;101304.19;;;21.66;42.61
58769;BME280;44536;47.474;19.056;2022-10-16T14:21:07;101309.09;;;21.71;43.22
58769;BME280;44536;47.474;19.056;2022-10-16T14:24:14;101302.91;;;21.36;43.36
58769;BME280;44536;47.474;19.056;2022-10-16T14:27:33;101315.03;;;21.24;44.47
58769;BME280;44536;47.474;19.056;2022-10-16T14:30:36;101301.19;;;20.93;45.04
58769;BME280;44536;47.474;19.056;2022-10-16T14:33:38;101302.81;;;20.78;44.47
58769;BME280;44536;47.474;19.056;2022-10-16T14:36:40;101300.91;;;20.70;45.27
58769;BME280;44536;47.474;19.056;2022-10-16T14:39:42;101307.84;;;20.73;44.35
58769;BME280;44536;47.474;19.056;2022-10-16T14:42:50;101308.91;;;20.54;44.83
58769;BME280;44536;47.474;19.056;2022-10-16T14:45:53;101311.03;;;20.25;45.71
58769;BME280;44536;47.474;19.056;2022-10-16T14:49:05;101306.41;;;20.17;46.99
58769;BME280;44536;47.474;19.056;2022-10-16T14:52:14;101314.34;;;20.01;48.12
58769;BME280;44536;47.474;19.056;2022-10-16T14:55:17;101315.41;;;19.55;51.09
58769;BME280;44536;47.474;19.056;2022-10-16T14:58:20;101313.09;;;19.32;53.25
58769;BME280;44536;47.474;19.056;2022-10-16T15:01:23;101310.16;;;18.98;50.09
58769;BME280;44536;47.474;19.056;2022-10-16T15:04:24;101308.37;;;18.79;53.46
58769;BME280;44536;47.474;19.056;2022-10-16T15:07:27;101306.03;;;18.57;55.64
58769;BME280;44536;47.474;19.056;2022-10-16T15:10:30;101305.50;;;18.44;56.94
58769;BME280;44536;47.474;19.056;2022-10-16T15:13:33;101306.50;;;18.24;55.27
58769;BME280;44536;47.474;19.056;2022-10-16T15:16:35;101307.41;;;18.05;57.31
58769;BME280;44536;47.474;19.056;2022-10-16T15:19:37;101317.84;;;17.89;58.58
58769;BME280;44536;47.474;19.056;2022-10-16T15:22:39;101329.97;;;17.73;58.97
58769;BME280;44536;47.474;19.056;2022-10-16T15:28:43;101336.81;;;17.47;59.76
58769;BME280;44536;47.474;19.056;2022-10-16T15:31:46;101342.56;;;17.33;59.35
58769;BME280;44536;47.474;19.056;2022-10-16T15:34:49;101338.19;;;17.32;58.86
58769;BME280;44536;47.474;19.056;2022-10-16T15:37:51;101341.47;;;17.05;60.16
58769;BME280;44536;47.474;19.056;2022-10-16T15:40:53;101345.41;;;17.01;61.77
58769;BME280;44536;47.474;19.056;2022-10-16T15:43:55;101345.16;;;16.83;62.33
58769;BME280;44536;47.474;19.056;2022-10-16T15:46:57;101344.59;;;16.79;60.63
58769;BME280;44536;47.474;19.056;2022-10-16T15:49:59;101350.94;;;16.58;61.42
58769;BME280;44536;47.474;19.056;2022-10-16T15:53:01;101349.03;;;16.48;62.49
58769;BME280;44536;47.474;19.056;2022-10-16T15:56:04;101348.00;;;16.40;63.43
58769;BME280;44536;47.474;19.056;2022-10-16T15:59:06;101345.28;;;16.19;66.31
58769;BME280;44536;47.474;19.056;2022-10-16T16:02:09;101347.06;;;16.09;67.21
58769;BME280;44536;47.474;19.056;2022-10-16T16:05:12;101355.25;;;15.96;65.52
58769;BME280;44536;47.474;19.056;2022-10-16T16:08:14;101351.97;;;15.93;66.45
58769;BME280;44536;47.474;19.056;2022-10-16T16:11:16;101368.16;;;15.91;67.02
58769;BME280;44536;47.474;19.056;2022-10-16T16:14:18;101363.72;;;15.69;66.52
58769;BME280;44536;47.474;19.056;2022-10-16T16:17:21;101381.22;;;15.62;68.42
58769;BME280;44536;47.474;19.056;2022-10-16T16:20:23;101379.41;;;15.51;67.69
58769;BME280;44536;47.474;19.056;2022-10-16T16:23:25;101387.06;;;15.45;69.71
58769;BME280;44536;47.474;19.056;2022-10-16T16:26:28;101395.09;;;15.34;69.57
58769;BME280;44536;47.474;19.056;2022-10-16T16:29:35;101393.88;;;15.27;68.94
58769;BME280;44536;47.474;19.056;2022-10-16T16:32:37;101397.50;;;15.14;70.01
58769;BME280;44536;47.474;19.056;2022-10-16T16:35:40;101392.06;;;15.05;70.88
58769;BME280;44536;47.474;19.056;2022-10-16T16:38:41;101409.66;;;14.96;71.29
58769;BME280;44536;47.474;19.056;2022-10-16T16:41:44;101406.50;;;15.02;70.99
58769;BME280;44536;47.474;19.056;2022-10-16T16:44:47;101413.28;;;15.17;69.71
58769;BME280;44536;47.474;19.056;2022-10-16T16:47:49;101415.84;;;15.08;70.43
58769;BME280;44536;47.474;19.056;2022-10-16T16:50:51;101415.72;;;14.98;70.79
58769;BME280;44536;47.474;19.056;2022-10-16T16:53:54;101423.44;;;14.79;74.02
58769;BME280;44536;47.474;19.056;2022-10-16T16:56:56;101427.66;;;14.70;73.51
58769;BME280;44536;47.474;19.056;2022-10-16T16:59:58;101425.47;;;14.64;73.16
58769;BME280;44536;47.474;19.056;2022-10-16T17:03:00;101437.22;;;14.50;74.22
58769;BME280;44536;47.474;19.056;2022-10-16T17:06:06;101440.63;;;14.52;73.54
58769;BME280;44536;47.474;19.056;2022-10-16T17:09:08;101434.78;;;14.47;72.54
58769;BME280;44536;47.474;19.056;2022-10-16T17:12:11;101443.41;;;14.51;73.15
58769;BME280;44536;47.474;19.056;2022-10-16T17:15:13;101462.84;;;14.40;73.36
58769;BME280;44536;47.474;19.056;2022-10-16T17:18:15;101458.41;;;14.28;73.69
58769;BME280;44536;47.474;19.056;2022-10-16T17:21:17;101456.19;;;14.22;73.89
58769;BME280;44536;47.474;19.056;2022-10-16T17:24:19;101460.69;;;14.21;74.52
58769;BME280;44536;47.474;19.056;2022-10-16T17:27:22;101470.84;;;14.16;74.27
58769;BME280;44536;47.474;19.056;2022-10-16T17:30:24;101472.12;;;14.11;77.04
58769;BME280;44536;47.474;19.056;2022-10-16T17:33:26;101478.66;;;14.07;76.26